sensor_id;sensor_type;location;lat;lon;timestamp;pressure;altitude;pressure_sealevel;temperature;humidity
84752;BME280;74978;37.772;-122.432;2024-02-15T00:01:36;101143.43;;;8.15;70.95
84752;BME280;74978;37.772;-122.432;2024-02-15T00:04:02;101138.82;;;8.55;71.05
84752;BME280;74978;37.772;-122.432;2024-02-15T00:06:26;101139.48;;;7.80;73.08
84752;BME280;74978;37.772;-122.432;2024-02-15T00:08:52;101141.13;;;8.24;73.01
84752;BME280;74978;37.772;-122.432;2024-02-15T00:11:18;101129.12;;;7.76;73.71
84752;BME280;74978;37.772;-122.432;2024-02-15T00:13:43;101131.50;;;7.68;73.20
84752;BME280;74978;37.772;-122.432;2024-02-15T00:16:12;101131.24;;;7.41;74.34
84752;BME280;74978;37.772;-122.432;2024-02-15T00:18:35;101126.31;;;7.62;72.07
84752;BME280;74978;37.772;-122.432;2024-02-15T00:21:00;101126.12;;;8.15;72.83
84752;BME280;74978;37.772;-122.432;2024-02-15T00:23:26;101124.91;;;7.80;71.62
84752;BME280;74978;37.772;-122.432;2024-02-15T00:25:52;101126.30;;;8.88;70.43
84752;BME280;74978;37.772;-122.432;2024-02-15T00:28:17;101122.52;;;7.89;72.85
84752;BME280;74978;37.772;-122.432;2024-02-15T00:30:43;101119.05;;;9.38;68.77
84752;BME280;74978;37.772;-122.432;2024-02-15T00:33:08;101130.06;;;8.65;71.17
84752;BME280;74978;37.772;-122.432;2024-02-15T00:35:34;101113.75;;;7.51;71.72
84752;BME280;74978;37.772;-122.432;2024-02-15T00:37:59;101123.58;;;8.85;70.05
84752;BME280;74978;37.772;-122.432;2024-02-15T00:40:25;101127.34;;;9.44;69.61
84752;BME280;74978;37.772;-122.432;2024-02-15T00:42:51;101138.46;;;9.20;68.32
84752;BME280;74978;37.772;-122.432;2024-02-15T00:45:16;101131.89;;;8.87;69.73
84752;BME280;74978;37.772;-122.432;2024-02-15T00:47:42;101144.88;;;8.73;70.22
84752;BME280;74978;37.772;-122.432;2024-02-15T00:50:08;101148.75;;;8.13;72.16
84752;BME280;74978;37.772;-122.432;2024-02-15T00:52:33;101151.70;;;7.45;72.86
84752;BME280;74978;37.772;-122.432;2024-02-15T00:55:00;101160.57;;;7.96;72.80
84752;BME280;74978;37.772;-122.432;2024-02-15T00:57:55;101235.08;;;7.53;77.21
84752;BME280;74978;37.772;-122.432;2024-02-15T00:59:57;101219.98;;;6.69;79.02
84752;BME280;74978;37.772;-122.432;2024-02-15T01:02:15;101211.53;;;6.69;80.76
84752;BME280;74978;37.772;-122.432;2024-02-15T01:04:41;101208.64;;;6.51;80.94
84752;BME280;74978;37.772;-122.432;2024-02-15T01:07:06;101220.00;;;6.52;81.00
84752;BME280;74978;37.772;-122.432;2024-02-15T01:09:32;101207.75;;;5.61;80.12
84752;BME280;74978;37.772;-122.432;2024-02-15T01:11:59;101229.30;;;6.42;81.52
84752;BME280;74978;37.772;-122.432;2024-02-15T01:14:23;101226.38;;;6.49;80.87
84752;BME280;74978;37.772;-122.432;2024-02-15T01:16:48;101226.85;;;6.58;79.80
84752;BME280;74978;37.772;-122.432;2024-02-15T01:19:14;101223.88;;;7.01;77.56
84752;BME280;74978;37.772;-122.432;2024-02-15T01:21:39;101233.69;;;6.14;78.13
84752;BME280;74978;37.772;-122.432;2024-02-15T01:24:05;101222.30;;;6.83;76.49
84752;BME280;74978;37.772;-122.432;2024-02-15T01:26:30;101232.16;;;6.51;74.12
84752;BME280;74978;37.772;-122.432;2024-02-15T01:28:56;101223.67;;;6.88;73.48
84752;BME280;74978;37.772;-122.432;2024-02-15T01:31:21;101223.98;;;7.13;73.60
84752;BME280;74978;37.772;-122.432;2024-02-15T01:33:46;101236.97;;;7.91;70.44
84752;BME280;74978;37.772;-122.432;2024-02-15T01:36:14;101246.86;;;7.20;70.61
84752;BME280;74978;37.772;-122.432;2024-02-15T01:38:37;101257.57;;;6.47;74.52
84752;BME280;74978;37.772;-122.432;2024-02-15T01:41:06;101255.14;;;7.03;74.42
84752;BME280;74978;37.772;-122.432;2024-02-15T01:43:28;101256.68;;;6.85;73.24
84752;BME280;74978;37.772;-122.432;2024-02-15T01:45:56;101281.21;;;7.67;72.29
84752;BME280;74978;37.772;-122.432;2024-02-15T01:48:20;101276.55;;;6.94;73.64
84752;BME280;74978;37.772;-122.432;2024-02-15T01:50:45;101276.36;;;6.90;73.71
84752;BME280;74978;37.772;-122.432;2024-02-15T01:53:11;101301.77;;;7.01;74.54
84752;BME280;74978;37.772;-122.432;2024-02-15T01:55:36;101301.35;;;7.26;71.73
84752;BME280;74978;37.772;-122.432;2024-02-15T01:58:01;101304.92;;;6.95;73.55
84752;BME280;74978;37.772;-122.432;2024-02-15T02:00:27;101284.52;;;7.12;72.16
84752;BME280;74978;37.772;-122.432;2024-02-15T02:02:53;101295.54;;;6.79;73.54
84752;BME280;74978;37.772;-122.432;2024-02-15T02:05:18;101287.59;;;7.15;74.01
84752;BME280;74978;37.772;-122.432;2024-02-15T02:07:43;101280.06;;;8.12;70.58
84752;BME280;74978;37.772;-122.432;2024-02-15T02:10:09;101250.02;;;8.98;68.04
84752;BME280;74978;37.772;-122.432;2024-02-15T02:12:34;101236.28;;;10.06;62.80
84752;BME280;74978;37.772;-122.432;2024-02-15T02:14:59;101279.08;;;9.26;65.57
84752;BME280;74978;37.772;-122.432;2024-02-15T02:17:25;101296.11;;;8.45;66.38
84752;BME280;74978;37.772;-122.432;2024-02-15T02:19:51;101312.38;;;8.51;67.39
84752;BME280;74978;37.772;-122.432;2024-02-15T02:22:17;101316.38;;;9.42;66.06
84752;BME280;74978;37.772;-122.432;2024-02-15T02:24:56;101314.65;;;7.85;69.32
84752;BME280;74978;37.772;-122.432;2024-02-15T02:27:08;101318.59;;;7.79;69.91
84752;BME280;74978;37.772;-122.432;2024-02-15T02:29:33;101312.20;;;6.89;70.40
84752;BME280;74978;37.772;-122.432;2024-02-15T02:31:58;101319.11;;;7.89;70.24
84752;BME280;74978;37.772;-122.432;2024-02-15T02:34:24;101299.33;;;7.49;72.03
84752;BME280;74978;37.772;-122.432;2024-02-15T02:36:49;101292.85;;;7.84;70.57
84752;BME280;74978;37.772;-122.432;2024-02-15T02:39:14;101291.10;;;9.01;67.87
84752;BME280;74978;37.772;-122.432;2024-02-15T02:41:40;101321.09;;;7.77;69.44
84752;BME280;74978;37.772;-122.432;2024-02-15T02:44:06;101331.68;;;7.60;71.88
84752;BME280;74978;37.772;-122.432;2024-02-15T02:46:31;101327.90;;;5.73;74.92
84752;BME280;74978;37.772;-122.432;2024-02-15T02:48:57;101342.48;;;7.31;74.52
84752;BME280;74978;37.772;-122.432;2024-02-15T02:51:23;101330.21;;;7.88;71.96
84752;BME280;74978;37.772;-122.432;2024-02-15T02:53:48;101326.74;;;8.19;70.38
84752;BME280;74978;37.772;-122.432;2024-02-15T02:56:14;101344.53;;;7.24;72.72
84752;BME280;74978;37.772;-122.432;2024-02-15T02:58:39;101325.45;;;6.98;73.61
84752;BME280;74978;37.772;-122.432;2024-02-15T03:01:04;101339.75;;;7.61;72.98
84752;BME280;74978;37.772;-122.432;2024-02-15T03:03:30;101330.24;;;6.03;74.96
84752;BME280;74978;37.772;-122.432;2024-02-15T03:05:55;101331.83;;;7.00;75.72
84752;BME280;74978;37.772;-122.432;2024-02-15T03:08:21;101326.47;;;7.01;75.28
84752;BME280;74978;37.772;-122.432;2024-02-15T03:10:46;101324.47;;;7.22;73.89
84752;BME280;74978;37.772;-122.432;2024-02-15T03:13:12;101334.22;;;7.37;72.99
84752;BME280;74978;37.772;-122.432;2024-02-15T03:15:37;101325.71;;;7.23;73.03
84752;BME280;74978;37.772;-122.432;2024-02-15T03:18:04;101324.54;;;7.51;72.48
84752;BME280;74978;37.772;-122.432;2024-02-15T03:20:28;101350.96;;;7.43;72.33
84752;BME280;74978;37.772;-122.432;2024-02-15T03:22:54;101337.96;;;7.63;73.44
84752;BME280;74978;37.772;-122.432;2024-02-15T03:25:19;101317.62;;;8.43;69.86
84752;BME280;74978;37.772;-122.432;2024-02-15T03:27:44;101351.98;;;9.16;66.92
84752;BME280;74978;37.772;-122.432;2024-02-15T03:30:10;101363.93;;;8.48;70.24
84752;BME280;74978;37.772;-122.432;2024-02-15T03:32:35;101354.47;;;7.81;71.04
84752;BME280;74978;37.772;-122.432;2024-02-15T03:35:01;101377.81;;;7.48;73.29
84752;BME280;74978;37.772;-122.432;2024-02-15T03:37:26;101366.45;;;7.11;73.67
84752;BME280;74978;37.772;-122.432;2024-02-15T03:39:52;101383.92;;;7.74;73.78
84752;BME280;74978;37.772;-122.432;2024-02-15T03:42:17;101374.63;;;7.82;72.32
84752;BME280;74978;37.772;-122.432;2024-02-15T03:44:43;101362.41;;;7.62;72.90
84752;BME280;74978;37.772;-122.432;2024-02-15T03:47:08;101369.57;;;7.45;74.29
84752;BME280;74978;37.772;-122.432;2024-02-15T03:49:33;101365.17;;;7.09;73.20
84752;BME280;74978;37.772;-122.432;2024-02-15T03:51:59;101383.47;;;7.34;74.78
84752;BME280;74978;37.772;-122.432;2024-02-15T03:54:25;101374.93;;;7.33;75.87
84752;BME280;74978;37.772;-122.432;2024-02-15T03:56:50;101384.25;;;7.58;74.65
84752;BME280;74978;37.772;-122.432;2024-02-15T03:59:15;101392.73;;;7.39;75.13
84752;BME280;74978;37.772;-122.432;2024-02-15T04:01:40;101386.38;;;7.47;74.05
84752;BME280;74978;37.772;-122.432;2024-02-15T04:04:05;101399.40;;;8.12;71.97
84752;BME280;74978;37.772;-122.432;2024-02-15T04:06:31;101386.65;;;6.92;74.89
84752;BME280;74978;37.772;-122.432;2024-02-15T04:08:57;101377.62;;;7.60;74.44
84752;BME280;74978;37.772;-122.432;2024-02-15T04:11:22;101380.32;;;7.52;74.97
84752;BME280;74978;37.772;-122.432;2024-02-15T04:13:48;101385.32;;;7.25;74.20
84752;BME280;74978;37.772;-122.432;2024-02-15T04:16:13;101394.56;;;7.40;74.47
84752;BME280;74978;37.772;-122.432;2024-02-15T04:18:39;101398.79;;;7.27;76.01
84752;BME280;74978;37.772;-122.432;2024-02-15T04:21:04;101403.03;;;8.31;72.47
84752;BME280;74978;37.772;-122.432;2024-02-15T04:23:29;101404.25;;;7.37;71.33
84752;BME280;74978;37.772;-122.432;2024-02-15T04:25:55;101411.66;;;7.72;73.13
84752;BME280;74978;37.772;-122.432;2024-02-15T04:28:21;101416.03;;;7.66;74.97
84752;BME280;74978;37.772;-122.432;2024-02-15T04:30:46;101420.60;;;7.46;74.50
84752;BME280;74978;37.772;-122.432;2024-02-15T04:33:12;101419.33;;;7.87;74.85
84752;BME280;74978;37.772;-122.432;2024-02-15T04:35:37;101421.94;;;7.48;74.88
84752;BME280;74978;37.772;-122.432;2024-02-15T04:38:03;101420.97;;;7.60;75.14
84752;BME280;74978;37.772;-122.432;2024-02-15T04:40:28;101425.08;;;7.18;74.23
84752;BME280;74978;37.772;-122.432;2024-02-15T04:42:53;101431.12;;;8.02;73.43
84752;BME280;74978;37.772;-122.432;2024-02-15T04:45:19;101438.92;;;8.00;72.92
84752;BME280;74978;37.772;-122.432;2024-02-15T04:47:45;101446.72;;;8.09;71.62
84752;BME280;74978;37.772;-122.432;2024-02-15T04:50:10;101444.27;;;8.34;72.51
84752;BME280;74978;37.772;-122.432;2024-02-15T04:52:35;101447.46;;;7.91;70.98
84752;BME280;74978;37.772;-122.432;2024-02-15T04:55:00;101444.63;;;8.06;72.79
84752;BME280;74978;37.772;-122.432;2024-02-15T04:57:26;101458.21;;;8.78;70.60
84752;BME280;74978;37.772;-122.432;2024-02-15T04:59:51;101452.39;;;8.72;70.59
84752;BME280;74978;37.772;-122.432;2024-02-15T05:02:16;101460.55;;;8.11;73.13
84752;BME280;74978;37.772;-122.432;2024-02-15T05:04:41;101469.18;;;7.90;73.72
84752;BME280;74978;37.772;-122.432;2024-02-15T05:07:07;101485.13;;;8.04;73.65
84752;BME280;74978;37.772;-122.432;2024-02-15T05:09:34;101485.00;;;7.00;73.21
84752;BME280;74978;37.772;-122.432;2024-02-15T05:12:00;101487.32;;;8.19;73.79
84752;BME280;74978;37.772;-122.432;2024-02-15T05:14:23;101495.99;;;8.21;74.02
84752;BME280;74978;37.772;-122.432;2024-02-15T05:16:50;101502.79;;;8.12;73.16
84752;BME280;74978;37.772;-122.432;2024-02-15T05:19:13;101501.65;;;7.95;73.10
84752;BME280;74978;37.772;-122.432;2024-02-15T05:21:40;101508.01;;;7.89;73.25
84752;BME280;74978;37.772;-122.432;2024-02-15T05:24:05;101512.45;;;7.97;74.29
84752;BME280;74978;37.772;-122.432;2024-02-15T05:26:29;101519.20;;;6.97;74.72
84752;BME280;74978;37.772;-122.432;2024-02-15T05:28:55;101519.03;;;8.10;72.81
84752;BME280;74978;37.772;-122.432;2024-02-15T05:31:21;101517.39;;;8.70;70.78
84752;BME280;74978;37.772;-122.432;2024-02-15T05:33:46;101528.63;;;8.41;71.93
84752;BME280;74978;37.772;-122.432;2024-02-15T05:36:12;101533.29;;;7.81;74.25
84752;BME280;74978;37.772;-122.432;2024-02-15T05:38:36;101528.78;;;7.45;72.93
84752;BME280;74978;37.772;-122.432;2024-02-15T05:41:02;101530.94;;;7.81;73.59
84752;BME280;74978;37.772;-122.432;2024-02-15T05:43:27;101532.44;;;7.48;73.10
84752;BME280;74978;37.772;-122.432;2024-02-15T05:45:52;101536.26;;;7.31;74.94
84752;BME280;74978;37.772;-122.432;2024-02-15T05:48:18;101541.78;;;7.65;75.10
84752;BME280;74978;37.772;-122.432;2024-02-15T05:50:44;101541.85;;;8.20;73.45
84752;BME280;74978;37.772;-122.432;2024-02-15T05:53:09;101544.28;;;7.88;73.25
84752;BME280;74978;37.772;-122.432;2024-02-15T05:55:34;101536.45;;;7.77;70.17
84752;BME280;74978;37.772;-122.432;2024-02-15T05:57:59;101536.21;;;8.77;68.98
84752;BME280;74978;37.772;-122.432;2024-02-15T06:00:25;101538.88;;;8.01;68.50
84752;BME280;74978;37.772;-122.432;2024-02-15T06:02:50;101542.75;;;7.30;71.53
84752;BME280;74978;37.772;-122.432;2024-02-15T06:05:15;101544.35;;;7.29;72.42
84752;BME280;74978;37.772;-122.432;2024-02-15T06:07:41;101549.44;;;7.38;72.65
84752;BME280;74978;37.772;-122.432;2024-02-15T06:10:07;101550.29;;;8.76;68.55
84752;BME280;74978;37.772;-122.432;2024-02-15T06:12:31;101549.03;;;7.28;69.51
84752;BME280;74978;37.772;-122.432;2024-02-15T06:14:57;101545.97;;;8.88;68.20
84752;BME280;74978;37.772;-122.432;2024-02-15T06:17:22;101539.13;;;8.35;67.34
84752;BME280;74978;37.772;-122.432;2024-02-15T06:19:48;101537.95;;;7.71;68.52
84752;BME280;74978;37.772;-122.432;2024-02-15T06:22:13;101534.19;;;8.35;68.86
84752;BME280;74978;37.772;-122.432;2024-02-15T06:24:38;101534.47;;;7.93;69.08
84752;BME280;74978;37.772;-122.432;2024-02-15T06:27:05;101529.75;;;7.52;71.35
84752;BME280;74978;37.772;-122.432;2024-02-15T06:29:29;101526.71;;;6.85;71.38
84752;BME280;74978;37.772;-122.432;2024-02-15T06:31:55;101526.84;;;7.31;71.69
84752;BME280;74978;37.772;-122.432;2024-02-15T06:34:20;101529.57;;;7.96;70.65
84752;BME280;74978;37.772;-122.432;2024-02-15T06:36:47;101527.79;;;7.70;70.28
84752;BME280;74978;37.772;-122.432;2024-02-15T06:39:11;101526.18;;;7.21;71.19
84752;BME280;74978;37.772;-122.432;2024-02-15T06:41:37;101525.74;;;7.63;70.29
84752;BME280;74978;37.772;-122.432;2024-02-15T06:44:02;101518.11;;;8.00;70.20
84752;BME280;74978;37.772;-122.432;2024-02-15T06:46:28;101509.48;;;7.48;69.89
84752;BME280;74978;37.772;-122.432;2024-02-15T06:48:53;101506.19;;;7.64;69.87
84752;BME280;74978;37.772;-122.432;2024-02-15T06:51:18;101511.86;;;7.56;71.71
84752;BME280;74978;37.772;-122.432;2024-02-15T06:53:44;101520.31;;;7.11;71.78
84752;BME280;74978;37.772;-122.432;2024-02-15T06:56:10;101530.15;;;7.31;71.39
84752;BME280;74978;37.772;-122.432;2024-02-15T06:58:36;101532.42;;;7.38;70.30
84752;BME280;74978;37.772;-122.432;2024-02-15T07:01:00;101537.20;;;7.34;71.92
84752;BME280;74978;37.772;-122.432;2024-02-15T07:03:27;101540.85;;;7.64;71.79
84752;BME280;74978;37.772;-122.432;2024-02-15T07:05:51;101539.14;;;7.25;71.33
84752;BME280;74978;37.772;-122.432;2024-02-15T07:08:17;101547.34;;;7.16;70.62
84752;BME280;74978;37.772;-122.432;2024-02-15T07:10:42;101557.05;;;6.75;69.39
84752;BME280;74978;37.772;-122.432;2024-02-15T07:13:08;101560.52;;;7.44;67.58
84752;BME280;74978;37.772;-122.432;2024-02-15T07:15:34;101571.05;;;5.76;68.12
84752;BME280;74978;37.772;-122.432;2024-02-15T07:17:59;101573.99;;;7.80;66.59
84752;BME280;74978;37.772;-122.432;2024-02-15T07:20:25;101579.70;;;7.61;66.28
84752;BME280;74978;37.772;-122.432;2024-02-15T07:22:50;101583.46;;;7.67;65.65
84752;BME280;74978;37.772;-122.432;2024-02-15T07:25:15;101584.95;;;7.48;66.05
84752;BME280;74978;37.772;-122.432;2024-02-15T07:27:41;101590.19;;;7.59;65.56
84752;BME280;74978;37.772;-122.432;2024-02-15T07:30:07;101595.16;;;7.78;65.17
84752;BME280;74978;37.772;-122.432;2024-02-15T07:32:31;101591.10;;;6.92;63.82
84752;BME280;74978;37.772;-122.432;2024-02-15T07:34:56;101586.78;;;7.30;66.06
84752;BME280;74978;37.772;-122.432;2024-02-15T07:37:22;101588.95;;;7.52;65.64
84752;BME280;74978;37.772;-122.432;2024-02-15T07:39:47;101585.67;;;7.25;65.64
84752;BME280;74978;37.772;-122.432;2024-02-15T07:42:14;101588.56;;;7.08;67.29
84752;BME280;74978;37.772;-122.432;2024-02-15T07:44:39;101575.32;;;7.53;65.68
84752;BME280;74978;37.772;-122.432;2024-02-15T07:47:04;101576.70;;;7.12;66.05
84752;BME280;74978;37.772;-122.432;2024-02-15T07:49:30;101579.53;;;6.73;65.84
84752;BME280;74978;37.772;-122.432;2024-02-15T07:51:55;101578.89;;;7.09;65.75
84752;BME280;74978;37.772;-122.432;2024-02-15T07:54:20;101579.40;;;8.24;63.88
84752;BME280;74978;37.772;-122.432;2024-02-15T07:56:45;101578.10;;;7.91;63.30
84752;BME280;74978;37.772;-122.432;2024-02-15T07:59:11;101578.64;;;8.40;61.78
84752;BME280;74978;37.772;-122.432;2024-02-15T08:01:39;101591.79;;;7.08;62.29
84752;BME280;74978;37.772;-122.432;2024-02-15T08:04:03;101588.19;;;8.10;61.20
84752;BME280;74978;37.772;-122.432;2024-02-15T08:06:27;101599.59;;;6.61;65.48
84752;BME280;74978;37.772;-122.432;2024-02-15T08:08:53;101602.86;;;6.99;66.39
84752;BME280;74978;37.772;-122.432;2024-02-15T08:11:19;101601.49;;;6.93;65.92
84752;BME280;74978;37.772;-122.432;2024-02-15T08:13:44;101605.05;;;6.93;67.36
84752;BME280;74978;37.772;-122.432;2024-02-15T08:16:10;101608.72;;;7.49;65.87
84752;BME280;74978;37.772;-122.432;2024-02-15T08:18:35;101613.38;;;6.89;66.37
84752;BME280;74978;37.772;-122.432;2024-02-15T08:21:02;101625.40;;;7.32;69.81
84752;BME280;74978;37.772;-122.432;2024-02-15T08:23:26;101623.79;;;6.85;70.10
84752;BME280;74978;37.772;-122.432;2024-02-15T08:25:52;101620.74;;;7.02;70.01
84752;BME280;74978;37.772;-122.432;2024-02-15T08:28:17;101625.02;;;7.42;69.33
84752;BME280;74978;37.772;-122.432;2024-02-15T08:30:43;101624.14;;;7.80;67.24
84752;BME280;74978;37.772;-122.432;2024-02-15T08:33:09;101615.76;;;7.56;68.32
84752;BME280;74978;37.772;-122.432;2024-02-15T08:35:35;101614.69;;;7.39;68.28
84752;BME280;74978;37.772;-122.432;2024-02-15T08:37:59;101615.45;;;6.90;71.11
84752;BME280;74978;37.772;-122.432;2024-02-15T08:40:25;101613.85;;;7.64;69.68
84752;BME280;74978;37.772;-122.432;2024-02-15T08:42:50;101616.55;;;7.31;71.25
84752;BME280;74978;37.772;-122.432;2024-02-15T08:45:15;101602.41;;;7.69;70.54
84752;BME280;74978;37.772;-122.432;2024-02-15T08:47:43;101608.99;;;7.51;72.78
84752;BME280;74978;37.772;-122.432;2024-02-15T08:50:09;101604.25;;;7.24;73.66
84752;BME280;74978;37.772;-122.432;2024-02-15T08:52:32;101601.34;;;6.47;74.08
84752;BME280;74978;37.772;-122.432;2024-02-15T08:54:59;101601.66;;;7.46;71.77
84752;BME280;74978;37.772;-122.432;2024-02-15T08:57:24;101607.00;;;7.49;71.35
84752;BME280;74978;37.772;-122.432;2024-02-15T08:59:48;101607.95;;;7.13;70.91
84752;BME280;74978;37.772;-122.432;2024-02-15T09:02:14;101607.28;;;7.10;73.48
84752;BME280;74978;37.772;-122.432;2024-02-15T09:04:40;101618.46;;;6.69;75.30
84752;BME280;74978;37.772;-122.432;2024-02-15T09:07:06;101618.13;;;7.02;73.82
84752;BME280;74978;37.772;-122.432;2024-02-15T09:09:31;101611.71;;;5.99;74.01
84752;BME280;74978;37.772;-122.432;2024-02-15T09:11:57;101610.75;;;6.98;72.78
84752;BME280;74978;37.772;-122.432;2024-02-15T09:14:22;101614.63;;;6.70;72.30
84752;BME280;74978;37.772;-122.432;2024-02-15T09:16:48;101617.00;;;6.61;71.20
84752;BME280;74978;37.772;-122.432;2024-02-15T09:19:13;101618.59;;;6.67;69.92
84752;BME280;74978;37.772;-122.432;2024-02-15T09:21:40;101615.01;;;6.06;70.45
84752;BME280;74978;37.772;-122.432;2024-02-15T09:24:05;101615.99;;;6.52;70.18
84752;BME280;74978;37.772;-122.432;2024-02-15T09:26:30;101619.38;;;5.94;70.14
84752;BME280;74978;37.772;-122.432;2024-02-15T09:28:56;101618.26;;;6.54;69.65
84752;BME280;74978;37.772;-122.432;2024-02-15T09:31:21;101619.33;;;7.02;69.12
84752;BME280;74978;37.772;-122.432;2024-02-15T09:33:47;101625.79;;;6.40;69.61
84752;BME280;74978;37.772;-122.432;2024-02-15T09:36:12;101625.35;;;6.65;69.11
84752;BME280;74978;37.772;-122.432;2024-02-15T09:38:39;101629.48;;;6.34;68.37
84752;BME280;74978;37.772;-122.432;2024-02-15T09:41:04;101633.26;;;6.60;68.37
84752;BME280;74978;37.772;-122.432;2024-02-15T09:43:29;101639.12;;;5.99;68.31
84752;BME280;74978;37.772;-122.432;2024-02-15T09:45:55;101639.98;;;6.50;67.99
84752;BME280;74978;37.772;-122.432;2024-02-15T09:48:25;101645.53;;;6.62;68.54
84752;BME280;74978;37.772;-122.432;2024-02-15T09:50:46;101646.42;;;6.22;69.36
84752;BME280;74978;37.772;-122.432;2024-02-15T09:53:12;101646.80;;;6.37;69.80
84752;BME280;74978;37.772;-122.432;2024-02-15T09:55:40;101643.25;;;6.37;70.22
84752;BME280;74978;37.772;-122.432;2024-02-15T09:58:03;101644.89;;;6.38;70.65
84752;BME280;74978;37.772;-122.432;2024-02-15T10:00:28;101644.69;;;5.91;69.65
84752;BME280;74978;37.772;-122.432;2024-02-15T10:02:54;101644.57;;;6.28;69.71
84752;BME280;74978;37.772;-122.432;2024-02-15T10:05:19;101649.53;;;6.38;69.29
84752;BME280;74978;37.772;-122.432;2024-02-15T10:07:45;101648.41;;;6.27;69.67
84752;BME280;74978;37.772;-122.432;2024-02-15T10:10:17;101653.45;;;6.41;69.68
84752;BME280;74978;37.772;-122.432;2024-02-15T10:12:38;101662.31;;;5.61;69.73
84752;BME280;74978;37.772;-122.432;2024-02-15T10:15:00;101663.84;;;6.58;69.90
84752;BME280;74978;37.772;-122.432;2024-02-15T10:17:26;101669.04;;;6.24;70.33
84752;BME280;74978;37.772;-122.432;2024-02-15T10:22:17;101679.52;;;6.51;69.45
84752;BME280;74978;37.772;-122.432;2024-02-15T10:24:46;101681.59;;;6.63;68.58
84752;BME280;74978;37.772;-122.432;2024-02-15T10:27:08;101684.30;;;6.78;68.56
84752;BME280;74978;37.772;-122.432;2024-02-15T10:29:33;101691.04;;;5.90;68.23
84752;BME280;74978;37.772;-122.432;2024-02-15T10:31:59;101687.98;;;7.06;66.68
84752;BME280;74978;37.772;-122.432;2024-02-15T10:34:24;101689.37;;;6.81;67.53
84752;BME280;74978;37.772;-122.432;2024-02-15T10:36:49;101689.68;;;6.69;68.61
84752;BME280;74978;37.772;-122.432;2024-02-15T10:39:15;101690.27;;;6.76;67.25
84752;BME280;74978;37.772;-122.432;2024-02-15T10:41:41;101693.16;;;6.86;66.49
84752;BME280;74978;37.772;-122.432;2024-02-15T10:44:07;101693.74;;;7.00;66.78
84752;BME280;74978;37.772;-122.432;2024-02-15T10:46:31;101691.12;;;7.25;63.37
84752;BME280;74978;37.772;-122.432;2024-02-15T10:48:57;101698.14;;;8.52;62.03
84752;BME280;74978;37.772;-122.432;2024-02-15T10:51:23;101700.76;;;9.55;59.86
84752;BME280;74978;37.772;-122.432;2024-02-15T10:53:55;101699.81;;;8.93;61.34
84752;BME280;74978;37.772;-122.432;2024-02-15T10:56:18;101696.01;;;8.70;61.58
84752;BME280;74978;37.772;-122.432;2024-02-15T10:58:46;101700.28;;;8.07;63.34
84752;BME280;74978;37.772;-122.432;2024-02-15T11:01:06;101700.43;;;8.18;62.45
84752;BME280;74978;37.772;-122.432;2024-02-15T11:03:36;101698.43;;;7.44;62.77
84752;BME280;74978;37.772;-122.432;2024-02-15T11:05:59;101697.04;;;8.14;64.03
84752;BME280;74978;37.772;-122.432;2024-02-15T11:08:21;101700.43;;;7.54;66.32
84752;BME280;74978;37.772;-122.432;2024-02-15T11:10:47;101702.67;;;7.03;67.69
84752;BME280;74978;37.772;-122.432;2024-02-15T11:13:12;101696.55;;;7.36;67.86
84752;BME280;74978;37.772;-122.432;2024-02-15T11:15:42;101700.98;;;6.61;68.73
84752;BME280;74978;37.772;-122.432;2024-02-15T11:18:04;101695.74;;;7.12;69.17
84752;BME280;74978;37.772;-122.432;2024-02-15T11:20:46;101699.00;;;5.95;70.48
84752;BME280;74978;37.772;-122.432;2024-02-15T11:22:57;101704.91;;;6.95;70.43
84752;BME280;74978;37.772;-122.432;2024-02-15T11:27:45;101700.35;;;6.01;73.77
84752;BME280;74978;37.772;-122.432;2024-02-15T11:30:11;101699.23;;;6.31;73.63
84752;BME280;74978;37.772;-122.432;2024-02-15T11:32:38;101704.03;;;5.86;73.10
84752;BME280;74978;37.772;-122.432;2024-02-15T11:35:03;101705.47;;;6.24;74.03
84752;BME280;74978;37.772;-122.432;2024-02-15T11:39:59;101709.87;;;6.50;72.99
84752;BME280;74978;37.772;-122.432;2024-02-15T11:42:27;101715.76;;;6.64;72.64
84752;BME280;74978;37.772;-122.432;2024-02-15T11:44:43;101712.08;;;6.68;71.85
84752;BME280;74978;37.772;-122.432;2024-02-15T11:47:10;101712.23;;;6.80;70.88
84752;BME280;74978;37.772;-122.432;2024-02-15T11:49:34;101714.28;;;5.75;72.64
84752;BME280;74978;37.772;-122.432;2024-02-15T11:52:09;101712.67;;;6.82;71.92
84752;BME280;74978;37.772;-122.432;2024-02-15T11:54:25;101708.08;;;6.85;72.61
84752;BME280;74978;37.772;-122.432;2024-02-15T11:56:53;101711.75;;;6.71;72.54
84752;BME280;74978;37.772;-122.432;2024-02-15T11:59:17;101711.88;;;7.34;71.13
84752;BME280;74978;37.772;-122.432;2024-02-15T12:01:42;101713.63;;;6.92;70.86
84752;BME280;74978;37.772;-122.432;2024-02-15T12:04:07;101719.72;;;7.82;68.54
84752;BME280;74978;37.772;-122.432;2024-02-15T12:06:33;101714.96;;;7.86;65.79
84752;BME280;74978;37.772;-122.432;2024-02-15T12:08:58;101716.86;;;11.19;58.79
84752;BME280;74978;37.772;-122.432;2024-02-15T12:11:24;101719.92;;;11.15;57.56
84752;BME280;74978;37.772;-122.432;2024-02-15T12:13:51;101721.84;;;10.72;57.52
84752;BME280;74978;37.772;-122.432;2024-02-15T12:16:16;101721.78;;;11.90;54.81
84752;BME280;74978;37.772;-122.432;2024-02-15T12:18:41;101722.37;;;8.93;59.41
84752;BME280;74978;37.772;-122.432;2024-02-15T12:21:06;101718.89;;;10.95;55.24
84752;BME280;74978;37.772;-122.432;2024-02-15T12:23:32;101717.95;;;11.19;55.19
84752;BME280;74978;37.772;-122.432;2024-02-15T12:25:57;101717.33;;;8.60;60.01
84752;BME280;74978;37.772;-122.432;2024-02-15T12:28:23;101719.67;;;10.73;56.62